createdAt,value
2023-02-06T00:01:30.757Z,103036.08
2023-02-06T00:03:42.644Z,103027.39
2023-02-06T00:05:59.600Z,103030.41
2023-02-06T00:08:11.652Z,103032.92
2023-02-06T00:10:23.861Z,103030.08
2023-02-06T00:12:36.357Z,103030.70
2023-02-06T00:14:47.942Z,103033.95
2023-02-06T00:17:01.268Z,103035.89
2023-02-06T00:19:13.164Z,103035.18
2023-02-06T00:21:26.530Z,103028.98
2023-02-06T00:23:38.276Z,103027.17
2023-02-06T00:25:50.176Z,103023.96
2023-02-06T00:28:02.333Z,103022.23
2023-02-06T00:30:14.772Z,103018.95
2023-02-06T00:32:26.983Z,103022.20
2023-02-06T00:34:39.386Z,103028.72
2023-02-06T00:36:52.197Z,103029.92
2023-02-06T00:39:04.392Z,103027.45
2023-02-06T00:41:16.496Z,103022.79
2023-02-06T00:43:28.691Z,103024.07
2023-02-06T00:45:42.017Z,103037.22
2023-02-06T00:47:54.317Z,103050.61
2023-02-06T00:50:06.624Z,103052.30
2023-02-06T00:52:18.410Z,103051.06
2023-02-06T00:54:30.723Z,103046.73
2023-02-06T00:56:43.037Z,103033.88
2023-02-06T00:58:54.909Z,103029.73
2023-02-06T01:01:06.698Z,103025.29
2023-02-06T01:03:18.589Z,103023.14
2023-02-06T01:05:30.276Z,103026.66
2023-02-06T01:07:42.574Z,103032.95
2023-02-06T01:09:54.161Z,103030.04
2023-02-06T01:12:06.258Z,103025.36
2023-02-06T01:14:18.248Z,103022.02
2023-02-06T01:16:29.978Z,103028.00
2023-02-06T01:18:42.038Z,103029.85
2023-02-06T01:20:53.932Z,103029.81
2023-02-06T01:23:05.716Z,103027.64
2023-02-06T01:25:17.913Z,103031.65
2023-02-06T01:27:30.223Z,103035.17
2023-02-06T01:29:43.405Z,103032.66
2023-02-06T01:31:56.047Z,103027.79
2023-02-06T01:34:10.294Z,103026.98
2023-02-06T01:36:23.255Z,103026.23
2023-02-06T01:38:34.898Z,103026.72
2023-02-06T01:40:47.202Z,103026.81
2023-02-06T01:42:59.400Z,103030.69
2023-02-06T01:45:26.966Z,103030.34
2023-02-06T01:47:38.954Z,103023.58
2023-02-06T01:49:51.255Z,103021.41
2023-02-06T01:52:20.663Z,103018.31
2023-02-06T01:54:33.790Z,103014.24
2023-02-06T01:56:55.008Z,103014.39
2023-02-06T01:59:07.395Z,103010.64
2023-02-06T02:01:20.443Z,103005.45
2023-02-06T02:03:36.225Z,103005.90
2023-02-06T02:05:50.853Z,103000.13
2023-02-06T02:08:14.947Z,102994.20
2023-02-06T02:10:29.792Z,102996.73
2023-02-06T02:12:41.691Z,102997.16
2023-02-06T02:14:56.272Z,102995.00
2023-02-06T02:17:33.741Z,102989.95
2023-02-06T02:20:23.829Z,102988.80
2023-02-06T02:23:06.644Z,102987.16
2023-02-06T02:25:30.827Z,102991.20
2023-02-06T02:28:06.084Z,102985.77
2023-02-06T02:30:52.113Z,102978.02
2023-02-06T02:33:37.382Z,102980.18
2023-02-06T02:35:59.262Z,102975.23
2023-02-06T02:38:30.305Z,102972.00
2023-02-06T02:41:05.131Z,102966.08
2023-02-06T02:43:40.067Z,102954.01
2023-02-06T02:45:59.279Z,102958.46
2023-02-06T02:48:15.796Z,102959.44
2023-02-06T02:50:29.509Z,102956.04
2023-02-06T02:52:42.606Z,102956.38
2023-02-06T02:54:54.683Z,102949.54
2023-02-06T02:57:14.492Z,102942.33
2023-02-06T02:59:43.240Z,102938.52
2023-02-06T03:02:05.558Z,102940.41
2023-02-06T03:04:24.327Z,102937.81
2023-02-06T03:07:00.906Z,102931.27
2023-02-06T03:09:46.379Z,102933.33
2023-02-06T03:12:17.525Z,102928.77
2023-02-06T03:14:34.880Z,102922.71
2023-02-06T03:17:04.764Z,102923.40
2023-02-06T03:19:44.094Z,102922.91
2023-02-06T03:21:56.299Z,102923.75
2023-02-06T03:24:17.433Z,102921.94
2023-02-06T03:26:32.470Z,102923.52
2023-02-06T03:28:58.598Z,102925.55
2023-02-06T03:31:13.780Z,102935.46
2023-02-06T03:33:33.989Z,102939.33
2023-02-06T03:35:46.649Z,102932.38
2023-02-06T03:37:58.764Z,102929.02
2023-02-06T03:40:12.327Z,102929.13
2023-02-06T03:42:25.315Z,102931.34
2023-02-06T03:44:42.542Z,102934.01
2023-02-06T03:46:56.098Z,102933.02
2023-02-06T03:49:12.762Z,102929.30
2023-02-06T03:51:32.950Z,102928.88
2023-02-06T03:53:46.383Z,102929.91
2023-02-06T03:56:06.568Z,102934.45
2023-02-06T03:58:18.459Z,102935.58
2023-02-06T04:00:31.891Z,102938.08
2023-02-06T04:02:47.755Z,102938.42
2023-02-06T04:04:59.975Z,102934.73
2023-02-06T04:07:20.195Z,102930.49
2023-02-06T04:09:31.953Z,102934.81
2023-02-06T04:11:44.151Z,102934.89
2023-02-06T04:13:56.013Z,102935.67
2023-02-06T04:16:08.653Z,102934.03
2023-02-06T04:18:20.652Z,102938.64
2023-02-06T04:20:32.415Z,102941.75
2023-02-06T04:22:44.330Z,102944.70
2023-02-06T04:24:56.129Z,102947.52
2023-02-06T04:27:09.653Z,102946.07
2023-02-06T04:29:21.652Z,102944.19
2023-02-06T04:31:33.769Z,102946.75
2023-02-06T04:33:45.943Z,102946.86
2023-02-06T04:35:57.630Z,102942.89
2023-02-06T04:38:09.419Z,102938.67
2023-02-06T04:40:22.028Z,102937.15
2023-02-06T04:42:34.228Z,102931.41
2023-02-06T04:44:46.429Z,102926.34
2023-02-06T04:46:58.732Z,102921.63
2023-02-06T04:49:11.157Z,102920.20
2023-02-06T04:51:23.245Z,102917.26
2023-02-06T04:53:35.533Z,102917.32
2023-02-06T04:55:47.812Z,102923.73
2023-02-06T04:57:59.535Z,102922.39
2023-02-06T05:00:12.337Z,102920.04
2023-02-06T05:02:24.064Z,102918.92
2023-02-06T05:04:35.708Z,102923.88
2023-02-06T05:06:47.806Z,102917.45
2023-02-06T05:08:59.903Z,102918.77
2023-02-06T05:11:11.997Z,102921.90
2023-02-06T05:13:24.712Z,102924.70
2023-02-06T05:15:37.526Z,102922.27
2023-02-06T05:17:49.432Z,102924.41
2023-02-06T05:20:01.613Z,102926.38
2023-02-06T05:22:13.709Z,102929.36
2023-02-06T05:24:25.399Z,102929.52
2023-02-06T05:26:37.391Z,102926.86
2023-02-06T05:28:49.191Z,102922.52
2023-02-06T05:31:02.577Z,102922.10
2023-02-06T05:33:14.910Z,102922.59
2023-02-06T05:35:26.605Z,102921.10
2023-02-06T05:37:38.696Z,102919.20
2023-02-06T05:39:50.895Z,102918.84
2023-02-06T05:42:02.595Z,102923.71
2023-02-06T05:44:14.374Z,102923.04
2023-02-06T05:46:26.970Z,102921.35
2023-02-06T05:48:39.697Z,102925.29
2023-02-06T05:50:51.793Z,102926.88
2023-02-06T05:53:03.894Z,102930.59
2023-02-06T05:55:17.230Z,102941.73
2023-02-06T05:57:28.805Z,102942.13
2023-02-06T05:59:40.491Z,102942.65
2023-02-06T06:01:52.284Z,102948.73
2023-02-06T06:04:04.299Z,102953.71
2023-02-06T06:06:16.591Z,102957.98
2023-02-06T06:08:28.368Z,102961.66
2023-02-06T06:10:40.364Z,102960.00
2023-02-06T06:12:51.949Z,102966.53
2023-02-06T06:15:03.776Z,102971.92
2023-02-06T06:17:16.250Z,102973.85
2023-02-06T06:19:28.036Z,102976.69
2023-02-06T06:21:40.038Z,102982.14
2023-02-06T06:23:51.750Z,102977.45
2023-02-06T06:26:03.508Z,102978.85
2023-02-06T06:28:15.762Z,102985.15
2023-02-06T06:30:28.009Z,102987.10
2023-02-06T06:32:39.905Z,102988.31
2023-02-06T06:34:51.601Z,102994.56
2023-02-06T06:37:03.246Z,102995.44
2023-02-06T06:39:15.071Z,102995.71
2023-02-06T06:41:27.176Z,102998.53
2023-02-06T06:43:39.791Z,102999.67
2023-02-06T06:45:52.118Z,102994.80
2023-02-06T06:48:04.477Z,102994.54
2023-02-06T06:50:16.599Z,102992.59
2023-02-06T06:52:28.778Z,102992.73
2023-02-06T06:54:40.418Z,102999.88
2023-02-06T06:56:52.084Z,103001.45
2023-02-06T06:59:03.844Z,103000.91
2023-02-06T07:01:16.515Z,103000.77
2023-02-06T07:03:28.135Z,103003.34
2023-02-06T07:05:39.822Z,103006.98
2023-02-06T07:07:51.610Z,103011.16
2023-02-06T07:10:03.812Z,103008.72
2023-02-06T07:12:15.909Z,103010.27
2023-02-06T07:14:27.600Z,103007.08
2023-02-06T07:16:39.405Z,103009.73
2023-02-06T07:18:51.178Z,103005.13
2023-02-06T07:21:04.304Z,103004.55
2023-02-06T07:23:15.993Z,103007.08
2023-02-06T07:25:28.082Z,103011.40
2023-02-06T07:27:39.876Z,103019.28
2023-02-06T07:29:51.766Z,103020.14
2023-02-06T07:32:04.576Z,103019.89
2023-02-06T07:34:17.099Z,103025.23
2023-02-06T07:36:28.989Z,103032.38
2023-02-06T07:38:41.177Z,103033.42
2023-02-06T07:40:52.864Z,103026.27
2023-02-06T07:43:07.641Z,103026.02
2023-02-06T07:45:19.924Z,103025.17
2023-02-06T07:47:31.817Z,103026.13
2023-02-06T07:49:43.504Z,103029.52
2023-02-06T07:51:55.502Z,103031.20
2023-02-06T07:54:07.187Z,103023.57
2023-02-06T07:56:23.331Z,103020.80
2023-02-06T07:58:35.580Z,103020.58
2023-02-06T08:00:47.274Z,103016.38
2023-02-06T08:02:58.853Z,103012.98
2023-02-06T08:05:10.743Z,103017.70
2023-02-06T08:07:22.536Z,103020.41
2023-02-06T08:09:34.631Z,103019.13
2023-02-06T08:11:46.522Z,103019.77
2023-02-06T08:13:58.726Z,103021.70
2023-02-06T08:16:13.633Z,103024.28
2023-02-06T08:18:25.274Z,103024.32
2023-02-06T08:20:36.960Z,103024.55
2023-02-06T08:22:48.544Z,103027.36
2023-02-06T08:25:00.947Z,103027.47
2023-02-06T08:27:12.944Z,103025.69
2023-02-06T08:29:25.886Z,103024.91
2023-02-06T08:31:40.150Z,103024.60
2023-02-06T08:33:52.613Z,103022.98
2023-02-06T08:36:05.045Z,103020.16
2023-02-06T08:38:17.117Z,103016.39
2023-02-06T08:40:28.702Z,103013.83
2023-02-06T08:42:40.800Z,103011.29
2023-02-06T08:44:53.915Z,103013.72
2023-02-06T08:47:10.297Z,103020.02
2023-02-06T08:49:27.030Z,103024.50
2023-02-06T08:51:38.912Z,103027.34
2023-02-06T08:53:50.704Z,103029.44
2023-02-06T08:56:09.698Z,103035.11
2023-02-06T08:58:21.347Z,103035.80
2023-02-06T09:00:33.143Z,103038.89
2023-02-06T09:02:45.469Z,103039.09
2023-02-06T09:04:57.742Z,103040.04
2023-02-06T09:07:09.428Z,103031.48
2023-02-06T09:09:21.381Z,103034.00
2023-02-06T09:11:33.948Z,103032.41
2023-02-06T09:13:49.238Z,103033.67
2023-02-06T09:16:01.861Z,103038.55
2023-02-06T09:18:13.704Z,103037.93
2023-02-06T09:20:26.937Z,103037.60
2023-02-06T09:22:38.714Z,103035.60
2023-02-06T09:24:50.711Z,103030.67
2023-02-06T09:27:02.906Z,103031.81
2023-02-06T09:29:14.807Z,103027.20
2023-02-06T09:31:30.734Z,103026.30
2023-02-06T09:33:42.371Z,103024.77
2023-02-06T09:36:15.771Z,103021.68
2023-02-06T09:38:27.765Z,103020.42
2023-02-06T09:40:40.063Z,103022.58
2023-02-06T09:42:53.709Z,103025.05
2023-02-06T09:45:15.526Z,103034.47
2023-02-06T09:47:41.545Z,103033.52
2023-02-06T09:49:58.796Z,103032.88
2023-02-06T09:52:15.879Z,103027.14
2023-02-06T09:54:47.020Z,103025.00
2023-02-06T09:57:11.715Z,103025.27
2023-02-06T09:59:30.469Z,103027.77
2023-02-06T10:02:04.886Z,103027.17
2023-02-06T10:04:19.859Z,103031.91
2023-02-06T10:06:51.301Z,103034.95
2023-02-06T10:09:27.257Z,103039.79
2023-02-06T10:11:41.611Z,103045.31
2023-02-06T10:14:10.498Z,103047.55
2023-02-06T10:16:39.966Z,103044.99
2023-02-06T10:18:56.917Z,103035.50
2023-02-06T10:21:41.546Z,103028.36
2023-02-06T10:24:09.236Z,103018.98
2023-02-06T10:26:22.768Z,103022.69
2023-02-06T10:28:35.536Z,103020.02
2023-02-06T10:31:06.871Z,103013.18
2023-02-06T10:33:32.831Z,103013.39
2023-02-06T10:36:04.416Z,103014.59
2023-02-06T10:38:45.591Z,103004.08
2023-02-06T10:41:12.636Z,103004.39
2023-02-06T10:43:46.169Z,103003.75
2023-02-06T10:46:52.627Z,102999.71
2023-02-06T10:49:14.433Z,102998.37
2023-02-06T10:51:35.665Z,103001.70
2023-02-06T10:53:53.608Z,103001.35
2023-02-06T10:56:13.764Z,102998.08
2023-02-06T10:58:31.296Z,102987.75
2023-02-06T11:00:46.406Z,102989.27
2023-02-06T11:03:08.134Z,102987.21
2023-02-06T11:05:23.804Z,102989.45
2023-02-06T11:08:16.416Z,102991.81
2023-02-06T11:10:28.532Z,102997.54
2023-02-06T11:12:51.409Z,103002.02
2023-02-06T11:15:14.712Z,103002.20
2023-02-06T11:17:28.497Z,103002.54
2023-02-06T11:19:44.447Z,102997.05
2023-02-06T11:22:16.707Z,102997.45
2023-02-06T11:24:28.602Z,102998.77
2023-02-06T11:26:55.548Z,103003.89
2023-02-06T11:29:37.241Z,103006.09
2023-02-06T11:31:57.180Z,103007.86
2023-02-06T11:34:30.636Z,103009.95
2023-02-06T11:36:45.271Z,103013.19
2023-02-06T11:39:00.394Z,103012.20
2023-02-06T11:41:19.056Z,103013.51
2023-02-06T11:43:49.218Z,103012.27
2023-02-06T11:46:23.568Z,103014.20
2023-02-06T11:48:44.846Z,103013.16
2023-02-06T11:50:56.733Z,103016.45
2023-02-06T11:53:17.133Z,103012.17
2023-02-06T11:55:34.463Z,103010.81
2023-02-06T11:58:02.794Z,103009.66
2023-02-06T12:00:22.909Z,103011.39
2023-02-06T12:02:39.307Z,103011.52
2023-02-06T12:04:58.448Z,103007.05
2023-02-06T12:07:30.102Z,103010.21
2023-02-06T12:09:43.144Z,103007.70
2023-02-06T12:12:21.559Z,103009.77
2023-02-06T12:14:46.663Z,103006.13
2023-02-06T12:17:02.345Z,103006.32
2023-02-06T12:19:23.877Z,103002.56
2023-02-06T12:21:43.356Z,103003.29
2023-02-06T12:24:02.453Z,103003.65
2023-02-06T12:26:19.094Z,103000.50
2023-02-06T12:28:49.931Z,102999.55
2023-02-06T12:31:08.549Z,102994.96
2023-02-06T12:33:25.611Z,102992.69
2023-02-06T12:35:45.017Z,102989.66
2023-02-06T12:38:00.434Z,102986.67
2023-02-06T12:40:49.090Z,102985.20
2023-02-06T12:43:11.941Z,102985.02
2023-02-06T12:45:35.301Z,102978.86
2023-02-06T12:47:57.739Z,102976.06
2023-02-06T12:50:36.867Z,102976.95
2023-02-06T12:53:04.733Z,102976.11
2023-02-06T12:55:23.997Z,102975.61
2023-02-06T12:57:37.375Z,102981.12
2023-02-06T13:00:05.505Z,102978.77
2023-02-06T13:02:42.035Z,102981.34
2023-02-06T13:04:56.011Z,102979.77
2023-02-06T13:07:15.482Z,102979.34
2023-02-06T13:09:59.633Z,102984.22
2023-02-06T13:12:27.538Z,102989.32
2023-02-06T13:14:48.229Z,102991.15
2023-02-06T13:17:12.056Z,102988.42
2023-02-06T13:19:29.399Z,102989.22
2023-02-06T13:21:41.490Z,102985.46
2023-02-06T13:24:02.446Z,102983.04
2023-02-06T13:26:14.492Z,102983.14
2023-02-06T13:28:26.494Z,102985.77
2023-02-06T13:30:38.131Z,102987.23
2023-02-06T13:32:50.940Z,102987.58
2023-02-06T13:35:12.719Z,102987.30
2023-02-06T13:37:37.790Z,102987.23
2023-02-06T13:40:18.580Z,102989.42
2023-02-06T13:42:39.074Z,102983.77
2023-02-06T13:44:52.230Z,102980.84
2023-02-06T13:47:23.032Z,102980.42
2023-02-06T13:50:07.304Z,102985.37
2023-02-06T13:52:32.075Z,102985.34
2023-02-06T13:55:22.063Z,102986.89
2023-02-06T13:57:58.634Z,102986.66
2023-02-06T14:00:31.900Z,102988.77
2023-02-06T14:02:51.216Z,102989.90
2023-02-06T14:05:06.984Z,102988.02
2023-02-06T14:07:44.471Z,102987.32
2023-02-06T14:10:34.249Z,102991.14
2023-02-06T14:12:54.844Z,102988.38
2023-02-06T14:15:18.920Z,102991.60
2023-02-06T14:17:49.553Z,102991.89
2023-02-06T14:20:34.319Z,102999.46
2023-02-06T14:23:29.622Z,102999.28
2023-02-06T14:25:48.066Z,103006.95
2023-02-06T14:28:17.034Z,103010.29
2023-02-06T14:30:38.839Z,103020.29
2023-02-06T14:32:50.677Z,103025.32
2023-02-06T14:35:24.176Z,103027.64
2023-02-06T14:37:55.452Z,103034.65
2023-02-06T14:40:21.240Z,103040.20
2023-02-06T14:42:40.678Z,103042.11
2023-02-06T14:45:00.709Z,103044.03
2023-02-06T14:47:20.776Z,103048.81
2023-02-06T14:49:37.917Z,103053.75
2023-02-06T14:51:51.590Z,103056.83
2023-02-06T14:54:25.229Z,103060.70
2023-02-06T14:56:38.691Z,103066.88
2023-02-06T14:58:51.626Z,103070.30
2023-02-06T15:01:23.424Z,103069.39
2023-02-06T15:03:35.231Z,103073.09
2023-02-06T15:05:57.666Z,103073.02
2023-02-06T15:08:20.623Z,103073.20
2023-02-06T15:10:36.504Z,103075.34
2023-02-06T15:12:54.969Z,103071.88
2023-02-06T15:15:18.955Z,103073.77
2023-02-06T15:17:32.046Z,103077.48
2023-02-06T15:19:43.859Z,103078.48
2023-02-06T15:22:31.773Z,103081.49
2023-02-06T15:24:46.330Z,103083.41
2023-02-06T15:27:21.877Z,103083.81
2023-02-06T15:29:33.877Z,103088.23
2023-02-06T15:31:50.866Z,103091.69
2023-02-06T15:34:03.188Z,103091.19
2023-02-06T15:36:31.566Z,103092.30
2023-02-06T15:38:43.457Z,103097.72
2023-02-06T15:41:00.572Z,103091.05
2023-02-06T15:43:16.458Z,103095.38
2023-02-06T15:45:39.343Z,103094.27
2023-02-06T15:47:53.467Z,103100.05
2023-02-06T15:50:11.184Z,103107.23
2023-02-06T15:52:42.917Z,103110.63
2023-02-06T15:54:59.133Z,103112.00
2023-02-06T15:57:17.405Z,103111.38
2023-02-06T15:59:30.327Z,103113.63
2023-02-06T16:01:43.208Z,103117.27
2023-02-06T16:03:59.401Z,103114.73
2023-02-06T16:06:16.621Z,103114.93
2023-02-06T16:08:33.762Z,103110.66
2023-02-06T16:10:50.546Z,103111.92
2023-02-06T16:13:10.857Z,103118.91
2023-02-06T16:15:35.384Z,103125.98
2023-02-06T16:17:47.515Z,103126.17
2023-02-06T16:20:02.801Z,103132.90
2023-02-06T16:22:21.031Z,103131.92
2023-02-06T16:24:32.820Z,103130.79
2023-02-06T16:26:52.226Z,103131.00
2023-02-06T16:29:17.829Z,103127.16
2023-02-06T16:31:34.712Z,103131.62
2023-02-06T16:33:49.773Z,103138.20
2023-02-06T16:36:02.183Z,103144.10
2023-02-06T16:38:14.273Z,103148.34
2023-02-06T16:40:26.365Z,103155.59
2023-02-06T16:42:41.627Z,103156.77
2023-02-06T16:44:59.539Z,103147.84
2023-02-06T16:47:17.094Z,103142.75
2023-02-06T16:49:29.103Z,103146.02
2023-02-06T16:51:43.339Z,103143.27
2023-02-06T16:53:56.052Z,103143.77
2023-02-06T16:56:12.602Z,103140.96
2023-02-06T16:58:25.160Z,103151.23
2023-02-06T17:00:37.243Z,103154.61
2023-02-06T17:02:52.065Z,103156.31
2023-02-06T17:05:05.210Z,103164.64
2023-02-06T17:07:21.945Z,103171.09
2023-02-06T17:09:34.043Z,103176.64
2023-02-06T17:11:45.842Z,103173.55
2023-02-06T17:13:58.610Z,103168.24
2023-02-06T17:16:16.044Z,103170.43
2023-02-06T17:18:27.962Z,103175.35
2023-02-06T17:20:42.257Z,103177.98
2023-02-06T17:22:54.270Z,103177.22
2023-02-06T17:25:06.959Z,103175.06
2023-02-06T17:27:21.684Z,103172.53
2023-02-06T17:29:33.980Z,103168.02
2023-02-06T17:31:45.802Z,103165.84
2023-02-06T17:33:59.408Z,103167.50
2023-02-06T17:36:29.358Z,103168.57
2023-02-06T17:38:41.623Z,103172.67
2023-02-06T17:40:54.025Z,103167.23
2023-02-06T17:43:07.361Z,103157.41
2023-02-06T17:45:19.456Z,103150.95
2023-02-06T17:47:31.764Z,103155.69
2023-02-06T17:49:43.437Z,103157.38
2023-02-06T17:51:56.766Z,103158.34
2023-02-06T17:54:09.377Z,103149.44
2023-02-06T17:56:21.678Z,103140.20
2023-02-06T17:58:34.488Z,103149.29
2023-02-06T18:00:50.169Z,103158.48
2023-02-06T18:03:02.034Z,103165.88
2023-02-06T18:05:14.262Z,103170.89
2023-02-06T18:07:26.873Z,103180.52
2023-02-06T18:09:41.055Z,103183.11
2023-02-06T18:11:53.727Z,103190.92
2023-02-06T18:14:05.619Z,103198.91
2023-02-06T18:16:20.582Z,103204.80
2023-02-06T18:18:32.990Z,103200.27
2023-02-06T18:20:45.292Z,103195.71
2023-02-06T18:22:57.082Z,103200.52
2023-02-06T18:25:11.240Z,103205.20
2023-02-06T18:27:23.426Z,103207.38
2023-02-06T18:29:49.871Z,103207.81
2023-02-06T18:32:02.466Z,103212.87
2023-02-06T18:34:14.357Z,103210.32
2023-02-06T18:36:27.374Z,103201.01
2023-02-06T18:38:39.271Z,103205.50
2023-02-06T18:40:51.158Z,103207.02
2023-02-06T18:43:03.570Z,103216.75
2023-02-06T18:45:15.251Z,103219.91
2023-02-06T18:47:26.941Z,103214.23
2023-02-06T18:49:39.082Z,103208.46
2023-02-06T18:51:51.138Z,103214.69
2023-02-06T18:54:03.656Z,103210.46
2023-02-06T18:56:15.738Z,103215.70
2023-02-06T18:58:27.728Z,103222.02
2023-02-06T19:00:42.467Z,103224.44
2023-02-06T19:02:54.483Z,103228.17
2023-02-06T19:05:07.106Z,103230.06
2023-02-06T19:07:20.024Z,103228.23
2023-02-06T19:09:32.251Z,103225.46
2023-02-06T19:11:43.806Z,103228.58
2023-02-06T19:13:56.407Z,103215.85
2023-02-06T19:16:12.632Z,103208.81
2023-02-06T19:18:37.668Z,103209.61
2023-02-06T19:20:50.003Z,103217.34
2023-02-06T19:23:01.808Z,103211.42
2023-02-06T19:25:14.913Z,103204.50
2023-02-06T19:27:27.115Z,103197.02
2023-02-06T19:29:39.723Z,103187.42
2023-02-06T19:31:52.056Z,103174.88
2023-02-06T19:34:04.227Z,103170.39
2023-02-06T19:36:16.787Z,103173.42
2023-02-06T19:38:28.522Z,103186.66
2023-02-06T19:40:40.517Z,103194.34
2023-02-06T19:42:52.411Z,103198.61
2023-02-06T19:45:06.522Z,103199.54
2023-02-06T19:47:18.441Z,103196.58
2023-02-06T19:49:30.238Z,103203.57
2023-02-06T19:51:44.905Z,103209.25
2023-02-06T19:53:59.140Z,103207.33
2023-02-06T19:56:21.478Z,103214.84
2023-02-06T19:58:34.183Z,103218.52
2023-02-06T20:00:46.449Z,103222.12
2023-02-06T20:02:58.480Z,103222.70
2023-02-06T20:05:10.985Z,103214.33
2023-02-06T20:07:22.685Z,103218.08
2023-02-06T20:09:34.489Z,103215.80
2023-02-06T20:11:48.355Z,103223.21
2023-02-06T20:14:00.403Z,103227.56
2023-02-06T20:16:23.268Z,103228.36
2023-02-06T20:18:36.683Z,103234.96
2023-02-06T20:20:48.878Z,103234.25
2023-02-06T20:23:00.775Z,103230.88
2023-02-06T20:25:12.769Z,103239.20
2023-02-06T20:27:26.631Z,103242.27
2023-02-06T20:29:40.290Z,103240.93
2023-02-06T20:31:52.958Z,103239.20
2023-02-06T20:34:05.762Z,103237.51
2023-02-06T20:36:20.762Z,103235.87
2023-02-06T20:38:34.265Z,103243.77
2023-02-06T20:40:51.070Z,103244.75
2023-02-06T20:43:03.163Z,103246.59
2023-02-06T20:45:15.363Z,103244.90
2023-02-06T20:47:27.458Z,103249.43
2023-02-06T20:49:39.556Z,103248.13
2023-02-06T20:51:52.367Z,103248.22
2023-02-06T20:54:04.669Z,103250.94
2023-02-06T20:56:17.792Z,103239.41
2023-02-06T20:58:30.609Z,103241.34
2023-02-06T21:00:43.008Z,103235.45
2023-02-06T21:02:55.289Z,103225.45
2023-02-06T21:05:07.766Z,103216.00
2023-02-06T21:07:20.781Z,103211.81
2023-02-06T21:09:32.829Z,103214.70
2023-02-06T21:11:50.220Z,103212.59
2023-02-06T21:14:04.185Z,103206.26
2023-02-06T21:16:16.191Z,103212.04
2023-02-06T21:18:30.508Z,103217.74
2023-02-06T21:20:42.736Z,103221.61
2023-02-06T21:22:55.244Z,103226.77
2023-02-06T21:25:07.343Z,103225.86
2023-02-06T21:27:19.856Z,103223.42
2023-02-06T21:29:31.741Z,103226.69
2023-02-06T21:31:46.350Z,103219.97
2023-02-06T21:33:58.497Z,103224.48
2023-02-06T21:36:10.497Z,103227.99
2023-02-06T21:38:22.723Z,103236.80
2023-02-06T21:40:34.894Z,103237.74
2023-02-06T21:42:46.786Z,103241.02
2023-02-06T21:44:58.574Z,103251.02
2023-02-06T21:47:10.186Z,103246.89
2023-02-06T21:49:23.448Z,103238.27
2023-02-06T21:51:35.277Z,103232.85
2023-02-06T21:53:47.372Z,103238.08
2023-02-06T21:55:59.264Z,103243.52
2023-02-06T21:58:14.651Z,103252.64
2023-02-06T22:00:27.452Z,103250.59
2023-02-06T22:02:39.187Z,103250.77
2023-02-06T22:04:51.646Z,103249.70
2023-02-06T22:07:03.745Z,103251.30
2023-02-06T22:09:18.917Z,103256.61
2023-02-06T22:11:31.320Z,103259.01
2023-02-06T22:13:43.517Z,103259.23
2023-02-06T22:15:55.536Z,103260.52
2023-02-06T22:18:09.349Z,103264.30
2023-02-06T22:20:21.140Z,103265.33
2023-02-06T22:22:32.834Z,103270.44
2023-02-06T22:24:45.029Z,103270.77
2023-02-06T22:26:57.432Z,103275.19
2023-02-06T22:29:12.746Z,103273.25
2023-02-06T22:31:27.796Z,103284.27
2023-02-06T22:33:40.269Z,103282.52
2023-02-06T22:35:52.881Z,103285.43
2023-02-06T22:38:05.488Z,103291.85
2023-02-06T22:40:17.282Z,103294.35
2023-02-06T22:42:29.068Z,103299.30
2023-02-06T22:44:41.166Z,103301.09
2023-02-06T22:46:53.369Z,103297.92
2023-02-06T22:49:07.557Z,103302.19
2023-02-06T22:51:20.321Z,103308.21
2023-02-06T22:53:32.317Z,103308.45
2023-02-06T22:56:13.906Z,103306.89
2023-02-06T22:58:25.799Z,103305.95
2023-02-06T23:00:37.905Z,103297.80
2023-02-06T23:02:49.585Z,103297.42
2023-02-06T23:05:01.484Z,103293.66
2023-02-06T23:07:13.267Z,103290.69
2023-02-06T23:09:27.965Z,103286.48
2023-02-06T23:11:40.032Z,103281.27
2023-02-06T23:13:54.628Z,103277.05
2023-02-06T23:16:07.820Z,103276.00
2023-02-06T23:18:19.490Z,103272.10
2023-02-06T23:20:31.286Z,103273.95
2023-02-06T23:22:43.070Z,103277.88
2023-02-06T23:24:55.372Z,103275.02
2023-02-06T23:27:07.392Z,103278.85
2023-02-06T23:29:20.901Z,103280.87
2023-02-06T23:31:33.550Z,103285.55
2023-02-06T23:33:45.401Z,103288.28
2023-02-06T23:36:05.890Z,103292.46
2023-02-06T23:38:19.523Z,103289.92
2023-02-06T23:40:32.031Z,103288.04
2023-02-06T23:42:44.332Z,103287.59
2023-02-06T23:44:55.862Z,103285.02
2023-02-06T23:47:07.705Z,103281.60
2023-02-06T23:49:19.507Z,103285.02
2023-02-06T23:51:33.067Z,103291.95
2023-02-06T23:53:45.123Z,103293.10
2023-02-06T23:55:57.424Z,103285.14
2023-02-06T23:58:09.110Z,103284.23
